createdAt,value
2023-05-18T00:02:26.661Z,10.91
2023-05-18T00:05:34.286Z,10.99
2023-05-18T00:08:37.719Z,10.95
2023-05-18T00:11:41.151Z,10.98
2023-05-18T00:14:43.512Z,10.99
2023-05-18T00:17:46.006Z,11.00
2023-05-18T00:20:48.915Z,11.06
2023-05-18T00:23:51.672Z,11.01
2023-05-18T00:26:54.054Z,11.00
2023-05-18T00:29:56.422Z,10.99
2023-05-18T00:32:58.937Z,11.03
2023-05-18T00:36:01.330Z,11.04
2023-05-18T00:39:05.456Z,10.86
2023-05-18T00:42:07.955Z,10.80
2023-05-18T00:45:10.627Z,10.74
2023-05-18T00:48:13.053Z,10.80
2023-05-18T00:51:16.221Z,10.89
2023-05-18T00:54:19.483Z,10.88
2023-05-18T00:57:22.081Z,10.94
2023-05-18T01:00:24.783Z,10.97
2023-05-18T01:03:30.265Z,10.95
2023-05-18T01:06:36.054Z,10.93
2023-05-18T01:09:39.064Z,10.92
2023-05-18T01:13:06.861Z,10.92
2023-05-18T01:16:12.692Z,10.86
2023-05-18T01:20:09.177Z,10.84
2023-05-18T01:23:45.327Z,10.82
2023-05-18T01:26:50.641Z,10.80
2023-05-18T01:29:56.039Z,10.76
2023-05-18T01:32:58.362Z,10.80
2023-05-18T01:36:03.799Z,10.84
2023-05-18T01:39:06.215Z,10.77
2023-05-18T01:42:15.354Z,10.71
2023-05-18T01:45:22.266Z,10.77
2023-05-18T01:48:25.831Z,10.82
2023-05-18T01:51:34.019Z,10.80
2023-05-18T01:54:41.480Z,10.76
2023-05-18T01:57:46.290Z,10.75
2023-05-18T02:00:50.727Z,10.84
2023-05-18T02:03:53.110Z,10.89
2023-05-18T02:06:56.528Z,10.91
2023-05-18T02:09:58.799Z,10.89
2023-05-18T02:13:01.293Z,10.96
2023-05-18T02:16:04.493Z,11.00
2023-05-18T02:19:07.410Z,11.20
2023-05-18T02:22:09.796Z,11.17
2023-05-18T02:25:12.460Z,11.20
2023-05-18T02:28:14.786Z,11.19
2023-05-18T02:31:18.372Z,11.24
2023-05-18T02:34:22.402Z,11.36
2023-05-18T02:37:24.751Z,11.47
2023-05-18T02:40:27.096Z,11.44
2023-05-18T02:43:29.518Z,11.45
2023-05-18T02:46:32.968Z,11.45
2023-05-18T02:49:35.563Z,11.45
2023-05-18T02:52:39.290Z,11.47
2023-05-18T02:55:41.651Z,11.42
2023-05-18T02:58:50.686Z,11.41
2023-05-18T03:01:56.948Z,11.41
2023-05-18T03:04:59.480Z,11.41
2023-05-18T03:08:02.503Z,11.40
2023-05-18T03:11:05.891Z,11.40
2023-05-18T03:14:08.413Z,11.32
2023-05-18T03:17:11.349Z,11.35
2023-05-18T03:20:17.375Z,11.32
2023-05-18T03:23:20.257Z,11.28
2023-05-18T03:26:26.129Z,11.25
2023-05-18T03:29:31.289Z,11.27
2023-05-18T03:32:37.077Z,11.30
2023-05-18T03:35:42.364Z,11.34
2023-05-18T03:38:47.762Z,11.27
2023-05-18T03:41:51.946Z,11.13
2023-05-18T03:44:54.391Z,11.18
2023-05-18T03:47:57.259Z,11.24
2023-05-18T03:51:00.855Z,11.29
2023-05-18T03:54:06.059Z,11.12
2023-05-18T03:57:08.431Z,11.11
2023-05-18T04:00:12.263Z,11.13
2023-05-18T04:03:21.754Z,11.19
2023-05-18T04:06:26.641Z,11.19
2023-05-18T04:09:29.388Z,11.24
2023-05-18T04:12:31.663Z,11.25
2023-05-18T04:15:34.585Z,11.25
2023-05-18T04:18:37.631Z,11.20
2023-05-18T04:21:43.684Z,11.21
2023-05-18T04:24:47.692Z,11.24
2023-05-18T04:27:51.622Z,11.26
2023-05-18T04:30:54.458Z,11.27
2023-05-18T04:33:58.531Z,11.17
2023-05-18T04:37:00.875Z,11.27
2023-05-18T04:40:07.367Z,11.21
2023-05-18T04:43:11.084Z,11.38
2023-05-18T04:46:16.855Z,11.48
2023-05-18T04:49:23.552Z,11.45
2023-05-18T04:52:26.479Z,11.40
2023-05-18T04:55:30.972Z,11.30
2023-05-18T04:58:38.343Z,11.39
2023-05-18T05:01:40.878Z,11.41
2023-05-18T05:04:43.615Z,11.46
2023-05-18T05:07:46.362Z,11.49
2023-05-18T05:10:48.708Z,11.60
2023-05-18T05:13:51.239Z,11.64
2023-05-18T05:16:53.552Z,11.60
2023-05-18T05:19:55.977Z,11.50
2023-05-18T05:22:58.633Z,11.55
2023-05-18T05:26:02.308Z,11.50
2023-05-18T05:29:05.976Z,11.54
2023-05-18T05:32:08.968Z,11.42
2023-05-18T05:35:11.441Z,11.43
2023-05-18T05:38:15.107Z,11.54
2023-05-18T05:41:20.147Z,11.61
2023-05-18T05:44:22.808Z,11.64
2023-05-18T05:47:25.933Z,11.64
2023-05-18T05:50:28.732Z,11.85
2023-05-18T05:53:35.554Z,12.01
2023-05-18T05:56:39.356Z,12.15
2023-05-18T05:59:42.446Z,12.12
2023-05-18T06:02:45.130Z,12.08
2023-05-18T06:05:47.675Z,12.18
2023-05-18T06:08:53.106Z,12.13
2023-05-18T06:11:55.592Z,12.04
2023-05-18T06:14:58.322Z,12.07
2023-05-18T06:18:01.982Z,12.23
2023-05-18T06:21:05.963Z,12.05
2023-05-18T06:24:08.824Z,12.03
2023-05-18T06:27:19.491Z,11.92
2023-05-18T06:30:29.670Z,11.85
2023-05-18T06:33:57.666Z,11.59
2023-05-18T06:37:00.928Z,11.56
2023-05-18T06:40:04.946Z,11.60
2023-05-18T06:43:08.305Z,11.52
2023-05-18T06:46:24.814Z,11.43
2023-05-18T06:49:31.654Z,11.41
2023-05-18T06:52:34.065Z,11.45
2023-05-18T06:55:36.686Z,11.48
2023-05-18T06:58:41.599Z,11.48
2023-05-18T07:01:44.588Z,11.50
2023-05-18T07:04:49.763Z,11.56
2023-05-18T07:07:52.651Z,11.61
2023-05-18T07:10:57.991Z,11.70
2023-05-18T07:14:00.303Z,11.66
2023-05-18T07:17:02.952Z,11.67
2023-05-18T07:20:07.347Z,11.69
2023-05-18T07:23:09.671Z,11.71
2023-05-18T07:26:12.167Z,11.82
2023-05-18T07:29:14.685Z,11.97
2023-05-18T07:32:17.049Z,11.92
2023-05-18T07:35:20.376Z,11.91
2023-05-18T07:38:22.942Z,11.92
2023-05-18T07:41:25.623Z,11.86
2023-05-18T07:44:28.045Z,11.89
2023-05-18T07:47:30.572Z,12.06
2023-05-18T07:50:34.751Z,12.19
2023-05-18T07:53:37.988Z,12.13
2023-05-18T07:56:41.087Z,12.14
2023-05-18T07:59:43.591Z,12.27
2023-05-18T08:02:46.325Z,12.31
2023-05-18T08:05:51.799Z,12.34
2023-05-18T08:08:56.737Z,12.12
2023-05-18T08:11:59.119Z,12.20
2023-05-18T08:15:02.108Z,12.28
2023-05-18T08:18:04.652Z,12.35
2023-05-18T08:21:09.888Z,12.45
2023-05-18T08:24:14.685Z,12.60
2023-05-18T08:27:17.072Z,12.78
2023-05-18T08:30:22.742Z,12.70
2023-05-18T08:33:25.997Z,12.82
2023-05-18T08:36:28.683Z,12.89
2023-05-18T08:39:32.141Z,12.79
2023-05-18T08:42:49.848Z,13.05
2023-05-18T08:46:02.462Z,13.29
2023-05-18T08:49:06.101Z,13.58
2023-05-18T08:52:09.154Z,13.53
2023-05-18T08:55:12.640Z,13.73
2023-05-18T08:58:19.678Z,13.69
2023-05-18T09:01:28.613Z,13.91
2023-05-18T09:04:34.729Z,14.11
2023-05-18T09:07:41.863Z,13.95
2023-05-18T09:10:45.240Z,13.98
2023-05-18T09:13:50.694Z,14.39
2023-05-18T09:16:53.645Z,14.48
2023-05-18T09:19:56.113Z,14.73
2023-05-18T09:22:59.825Z,14.61
2023-05-18T09:26:04.938Z,15.01
2023-05-18T09:29:21.187Z,15.31
2023-05-18T09:32:24.364Z,15.14
2023-05-18T09:35:26.722Z,15.24
2023-05-18T09:38:29.082Z,15.22
2023-05-18T09:41:31.569Z,14.93
2023-05-18T09:44:35.081Z,14.77
2023-05-18T09:47:38.460Z,14.34
2023-05-18T09:50:45.262Z,14.66
2023-05-18T09:53:58.677Z,15.05
2023-05-18T09:57:10.223Z,15.04
2023-05-18T10:00:17.511Z,14.91
2023-05-18T10:03:24.814Z,14.57
2023-05-18T10:06:28.652Z,14.50
2023-05-18T10:09:31.488Z,14.87
2023-05-18T10:12:34.234Z,14.51
2023-05-18T10:15:38.026Z,14.39
2023-05-18T10:18:41.191Z,14.46
2023-05-18T10:21:45.211Z,14.41
2023-05-18T10:24:52.183Z,14.78
2023-05-18T10:28:11.701Z,15.30
2023-05-18T10:31:16.474Z,15.35
2023-05-18T10:34:20.918Z,15.38
2023-05-18T10:37:24.573Z,15.38
2023-05-18T10:40:28.936Z,15.63
2023-05-18T10:43:34.328Z,15.81
2023-05-18T10:46:38.200Z,15.34
2023-05-18T10:49:45.730Z,15.18
2023-05-18T10:52:50.420Z,14.69
2023-05-18T10:55:54.297Z,14.59
2023-05-18T10:58:56.829Z,14.66
2023-05-18T11:02:04.335Z,14.68
2023-05-18T11:05:07.636Z,14.57
2023-05-18T11:08:10.438Z,14.65
2023-05-18T11:11:13.029Z,14.71
2023-05-18T11:14:15.712Z,14.65
2023-05-18T11:17:21.424Z,14.60
2023-05-18T11:20:25.915Z,14.28
2023-05-18T11:23:34.235Z,14.35
2023-05-18T11:26:44.852Z,14.37
2023-05-18T11:29:57.703Z,14.52
2023-05-18T11:33:12.564Z,14.60
2023-05-18T11:36:15.645Z,14.68
2023-05-18T11:39:25.079Z,14.69
2023-05-18T11:42:35.083Z,14.70
2023-05-18T11:45:53.193Z,14.72
2023-05-18T11:48:55.642Z,14.65
2023-05-18T11:52:06.985Z,14.78
2023-05-18T11:55:14.163Z,14.69
2023-05-18T11:58:19.225Z,14.63
2023-05-18T12:01:23.692Z,14.63
2023-05-18T12:04:27.676Z,14.67
2023-05-18T12:07:34.452Z,14.43
2023-05-18T12:10:37.625Z,14.39
2023-05-18T12:13:41.719Z,14.52
2023-05-18T12:16:44.828Z,14.70
2023-05-18T12:19:49.216Z,14.81
2023-05-18T12:22:53.977Z,15.00
2023-05-18T12:25:56.511Z,14.95
2023-05-18T12:29:05.268Z,15.14
2023-05-18T12:32:10.672Z,15.39
2023-05-18T12:35:13.169Z,15.49
2023-05-18T12:38:17.654Z,15.50
2023-05-18T12:41:29.203Z,15.63
2023-05-18T12:44:32.771Z,15.56
2023-05-18T12:47:41.347Z,15.64
2023-05-18T12:50:48.524Z,15.60
2023-05-18T12:53:51.681Z,15.69
2023-05-18T12:57:02.465Z,15.65
2023-05-18T13:00:10.744Z,15.50
2023-05-18T13:03:18.076Z,15.39
2023-05-18T13:06:20.775Z,15.37
2023-05-18T13:09:23.198Z,15.36
2023-05-18T13:12:44.911Z,15.22
2023-05-18T13:15:47.388Z,15.23
2023-05-18T13:18:57.022Z,15.27
2023-05-18T13:21:59.501Z,15.41
2023-05-18T13:25:01.774Z,15.27
2023-05-18T13:28:05.173Z,15.14
2023-05-18T13:31:12.808Z,15.13
2023-05-18T13:34:15.505Z,15.11
2023-05-18T13:37:18.221Z,15.04
2023-05-18T13:40:22.371Z,15.13
2023-05-18T13:43:27.646Z,15.08
2023-05-18T13:46:30.082Z,14.98
2023-05-18T13:49:32.410Z,14.90
2023-05-18T13:52:37.014Z,15.02
2023-05-18T13:55:39.369Z,15.23
2023-05-18T13:58:42.007Z,15.26
2023-05-18T14:01:44.975Z,15.36
2023-05-18T14:04:47.376Z,15.27
2023-05-18T14:07:50.408Z,14.89
2023-05-18T14:10:52.753Z,15.01
2023-05-18T14:13:55.082Z,14.76
2023-05-18T14:16:57.982Z,14.62
2023-05-18T14:20:00.877Z,14.58
2023-05-18T14:23:04.882Z,14.48
2023-05-18T14:26:08.064Z,14.64
2023-05-18T14:29:10.372Z,14.68
2023-05-18T14:32:12.685Z,14.69
2023-05-18T14:35:15.081Z,14.66
2023-05-18T14:38:17.471Z,14.65
2023-05-18T14:41:21.544Z,14.79
2023-05-18T14:44:24.032Z,14.77
2023-05-18T14:47:28.016Z,14.76
2023-05-18T14:50:30.654Z,14.87
2023-05-18T14:53:33.057Z,15.01
2023-05-18T14:56:35.718Z,14.81
2023-05-18T14:59:38.087Z,14.66
2023-05-18T15:02:40.477Z,14.79
2023-05-18T15:05:44.400Z,14.49
2023-05-18T15:08:46.751Z,14.70
2023-05-18T15:11:49.419Z,14.49
2023-05-18T15:14:53.321Z,14.42
2023-05-18T15:17:55.841Z,14.50
2023-05-18T15:20:58.205Z,14.23
2023-05-18T15:24:01.949Z,14.27
2023-05-18T15:27:04.688Z,14.39
2023-05-18T15:30:11.447Z,14.52
2023-05-18T15:33:13.774Z,14.65
2023-05-18T15:36:16.140Z,14.37
2023-05-18T15:39:18.397Z,14.52
2023-05-18T15:42:21.384Z,14.48
2023-05-18T15:45:23.693Z,14.49
2023-05-18T15:48:26.087Z,14.54
2023-05-18T15:51:28.383Z,14.47
2023-05-18T15:54:31.592Z,14.60
2023-05-18T15:57:34.104Z,14.46
2023-05-18T16:00:36.435Z,14.36
2023-05-18T16:03:38.883Z,14.48
2023-05-18T16:06:41.404Z,14.74
2023-05-18T16:09:45.883Z,14.70
2023-05-18T16:12:48.253Z,14.74
2023-05-18T16:15:50.831Z,14.69
2023-05-18T16:18:53.405Z,14.30
2023-05-18T16:21:58.978Z,14.19
2023-05-18T16:25:01.398Z,14.44
2023-05-18T16:28:03.838Z,14.20
2023-05-18T16:31:09.125Z,14.35
2023-05-18T16:34:11.545Z,14.15
2023-05-18T16:37:14.071Z,14.13
2023-05-18T16:40:16.448Z,14.17
2023-05-18T16:43:18.789Z,14.22
2023-05-18T16:46:22.346Z,14.32
2023-05-18T16:49:24.715Z,14.30
2023-05-18T16:52:27.140Z,13.97
2023-05-18T16:55:29.586Z,13.78
2023-05-18T16:58:32.040Z,13.80
2023-05-18T17:01:34.640Z,13.82
2023-05-18T17:04:37.003Z,13.77
2023-05-18T17:07:40.080Z,13.81
2023-05-18T17:10:42.455Z,13.65
2023-05-18T17:13:44.672Z,13.55
2023-05-18T17:16:47.383Z,13.41
2023-05-18T17:19:50.240Z,13.27
2023-05-18T17:22:52.592Z,13.30
2023-05-18T17:26:00.933Z,13.37
2023-05-18T17:29:08.164Z,13.35
2023-05-18T17:32:10.529Z,13.32
2023-05-18T17:35:14.255Z,13.29
2023-05-18T17:38:17.231Z,13.21
2023-05-18T17:41:22.131Z,13.12
2023-05-18T17:44:24.631Z,13.20
2023-05-18T17:47:27.250Z,13.14
2023-05-18T17:50:29.740Z,13.13
2023-05-18T17:53:32.475Z,13.16
2023-05-18T17:56:35.592Z,13.06
2023-05-18T17:59:38.012Z,13.03
2023-05-18T18:02:42.179Z,13.09
2023-05-18T18:05:44.871Z,12.99
2023-05-18T18:08:47.548Z,12.96
2023-05-18T18:11:52.326Z,12.95
2023-05-18T18:14:54.629Z,12.96
2023-05-18T18:17:57.166Z,12.95
2023-05-18T18:20:59.551Z,12.89
2023-05-18T18:24:02.788Z,13.01
2023-05-18T18:27:05.473Z,12.97
2023-05-18T18:30:08.272Z,12.94
2023-05-18T18:33:11.363Z,12.92
2023-05-18T18:36:13.763Z,13.05
2023-05-18T18:39:16.230Z,13.12
2023-05-18T18:42:21.334Z,13.09
2023-05-18T18:45:24.088Z,12.98
2023-05-18T18:48:26.792Z,12.81
2023-05-18T18:51:33.346Z,12.79
2023-05-18T18:54:35.661Z,12.73
2023-05-18T18:57:38.261Z,12.70
2023-05-18T19:00:40.712Z,12.75
2023-05-18T19:03:43.296Z,12.77
2023-05-18T19:06:47.397Z,12.82
2023-05-18T19:09:50.543Z,12.79
2023-05-18T19:12:53.192Z,12.80
2023-05-18T19:15:55.612Z,12.70
2023-05-18T19:18:57.993Z,12.69
2023-05-18T19:22:00.378Z,12.79
2023-05-18T19:25:03.051Z,12.73
2023-05-18T19:28:07.050Z,12.80
2023-05-18T19:31:10.372Z,12.85
2023-05-18T19:34:14.050Z,12.94
2023-05-18T19:37:16.338Z,12.92
2023-05-18T19:40:19.007Z,12.93
2023-05-18T19:43:21.438Z,12.92
2023-05-18T19:46:23.800Z,12.94
2023-05-18T19:49:29.756Z,12.89
2023-05-18T19:52:33.710Z,12.94
2023-05-18T19:55:36.590Z,12.93
2023-05-18T19:58:38.886Z,12.92
2023-05-18T20:01:41.350Z,12.87
2023-05-18T20:04:43.772Z,12.86
2023-05-18T20:07:46.507Z,12.94
2023-05-18T20:10:48.976Z,12.97
2023-05-18T20:13:51.346Z,13.06
2023-05-18T20:16:55.694Z,13.04
2023-05-18T20:19:58.253Z,13.09
2023-05-18T20:23:00.815Z,13.17
2023-05-18T20:26:03.189Z,13.14
2023-05-18T20:29:05.664Z,13.25
2023-05-18T20:32:08.111Z,13.14
2023-05-18T20:35:10.410Z,13.10
2023-05-18T20:38:12.806Z,13.03
2023-05-18T20:41:17.862Z,13.00
2023-05-18T20:44:23.040Z,12.99
2023-05-18T20:47:25.520Z,12.97
2023-05-18T20:50:27.854Z,12.98
2023-05-18T20:53:30.398Z,13.02
2023-05-18T20:56:32.907Z,13.03
2023-05-18T20:59:35.277Z,12.98
2023-05-18T21:02:37.781Z,13.02
2023-05-18T21:05:41.092Z,13.02
2023-05-18T21:08:45.352Z,13.10
2023-05-18T21:11:47.805Z,13.12
2023-05-18T21:14:50.972Z,13.08
2023-05-18T21:17:53.346Z,13.06
2023-05-18T21:20:57.404Z,13.04
2023-05-18T21:23:59.748Z,13.02
2023-05-18T21:27:03.391Z,12.91
2023-05-18T21:30:06.274Z,12.94
2023-05-18T21:33:08.676Z,12.86
2023-05-18T21:36:11.378Z,12.99
2023-05-18T21:39:13.793Z,12.98
2023-05-18T21:42:16.083Z,12.97
2023-05-18T21:45:18.590Z,13.04
2023-05-18T21:48:21.024Z,13.04
2023-05-18T21:51:25.276Z,13.09
2023-05-18T21:54:32.027Z,13.27
2023-05-18T21:57:35.275Z,13.30
2023-05-18T22:00:38.402Z,13.28
2023-05-18T22:03:40.788Z,13.43
2023-05-18T22:06:43.405Z,13.45
2023-05-18T22:09:45.738Z,13.42
2023-05-18T22:12:48.041Z,13.30
2023-05-18T22:15:50.593Z,13.21
2023-05-18T22:18:52.882Z,13.10
2023-05-18T22:21:55.727Z,13.09
2023-05-18T22:24:58.080Z,13.05
2023-05-18T22:28:00.341Z,12.95
2023-05-18T22:31:02.692Z,12.87
2023-05-18T22:34:06.403Z,12.83
2023-05-18T22:37:08.731Z,13.06
2023-05-18T22:40:11.504Z,13.10
2023-05-18T22:43:14.376Z,12.83
2023-05-18T22:46:16.766Z,12.90
2023-05-18T22:49:19.166Z,12.94
2023-05-18T22:52:22.038Z,12.92
2023-05-18T22:55:24.315Z,12.77
2023-05-18T22:58:26.737Z,12.73
2023-05-18T23:01:29.193Z,12.64
2023-05-18T23:04:34.193Z,12.60
2023-05-18T23:07:36.706Z,12.52
2023-05-18T23:10:38.993Z,12.54
2023-05-18T23:13:41.907Z,12.57
2023-05-18T23:16:46.769Z,12.54
2023-05-18T23:19:50.305Z,12.52
2023-05-18T23:22:52.667Z,12.45
2023-05-18T23:25:55.094Z,12.41
2023-05-18T23:28:57.410Z,12.44
2023-05-18T23:31:59.717Z,12.50
2023-05-18T23:35:04.415Z,12.59
2023-05-18T23:38:10.629Z,12.62
2023-05-18T23:41:13.934Z,12.54
2023-05-18T23:44:16.598Z,12.50
2023-05-18T23:47:19.239Z,12.46
2023-05-18T23:50:24.994Z,12.42
2023-05-18T23:53:31.409Z,12.38
2023-05-18T23:56:34.176Z,12.51
2023-05-18T23:59:37.117Z,12.42
